sensor_id;sensor_type;location;lat;lon;timestamp;P1;durP1;ratioP1;P2;durP2;ratioP2
20445;SDS011;10382;49.140;9.234;2023-09-08T00:00:15;8.77;;;6.20;;
20445;SDS011;10382;49.140;9.234;2023-09-08T00:02:42;8.80;;;6.63;;
20445;SDS011;10382;49.140;9.234;2023-09-08T00:05:09;13.17;;;7.30;;
20445;SDS011;10382;49.140;9.234;2023-09-08T00:07:36;12.57;;;8.17;;
20445;SDS011;10382;49.140;9.234;2023-09-08T00:10:03;10.13;;;8.00;;
20445;SDS011;10382;49.140;9.234;2023-09-08T00:12:32;11.97;;;7.43;;
20445;SDS011;10382;49.140;9.234;2023-09-08T00:15:00;14.83;;;8.17;;
20445;SDS011;10382;49.140;9.234;2023-09-08T00:17:27;19.13;;;7.80;;
20445;SDS011;10382;49.140;9.234;2023-09-08T00:19:54;14.33;;;7.30;;
20445;SDS011;10382;49.140;9.234;2023-09-08T00:22:20;9.10;;;7.07;;
20445;SDS011;10382;49.140;9.234;2023-09-08T00:24:47;10.93;;;7.60;;
20445;SDS011;10382;49.140;9.234;2023-09-08T00:27:14;8.80;;;6.80;;
20445;SDS011;10382;49.140;9.234;2023-09-08T00:29:41;9.20;;;6.97;;
20445;SDS011;10382;49.140;9.234;2023-09-08T00:32:09;10.00;;;7.63;;
20445;SDS011;10382;49.140;9.234;2023-09-08T00:34:36;15.43;;;7.67;;
20445;SDS011;10382;49.140;9.234;2023-09-08T00:37:03;9.83;;;7.17;;
20445;SDS011;10382;49.140;9.234;2023-09-08T00:39:34;11.10;;;7.30;;
20445;SDS011;10382;49.140;9.234;2023-09-08T00:42:01;12.60;;;7.70;;
20445;SDS011;10382;49.140;9.234;2023-09-08T00:44:28;15.57;;;7.10;;
20445;SDS011;10382;49.140;9.234;2023-09-08T00:46:55;10.47;;;7.30;;
20445;SDS011;10382;49.140;9.234;2023-09-08T00:49:24;14.03;;;7.37;;
20445;SDS011;10382;49.140;9.234;2023-09-08T00:51:51;20.03;;;8.10;;
20445;SDS011;10382;49.140;9.234;2023-09-08T00:54:18;10.70;;;6.80;;
20445;SDS011;10382;49.140;9.234;2023-09-08T00:56:44;10.80;;;6.80;;
20445;SDS011;10382;49.140;9.234;2023-09-08T00:59:14;9.80;;;7.50;;
20445;SDS011;10382;49.140;9.234;2023-09-08T01:01:43;10.57;;;6.40;;
20445;SDS011;10382;49.140;9.234;2023-09-08T01:04:10;19.17;;;8.07;;
20445;SDS011;10382;49.140;9.234;2023-09-08T01:06:38;14.00;;;8.60;;
20445;SDS011;10382;49.140;9.234;2023-09-08T01:09:06;10.90;;;8.30;;
20445;SDS011;10382;49.140;9.234;2023-09-08T01:11:34;16.07;;;6.53;;
20445;SDS011;10382;49.140;9.234;2023-09-08T01:14:02;15.53;;;8.67;;
20445;SDS011;10382;49.140;9.234;2023-09-08T01:16:29;8.70;;;6.67;;
20445;SDS011;10382;49.140;9.234;2023-09-08T01:18:56;10.93;;;7.47;;
20445;SDS011;10382;49.140;9.234;2023-09-08T01:24:25;16.47;;;9.80;;
20445;SDS011;10382;49.140;9.234;2023-09-08T01:27:12;14.83;;;7.13;;
20445;SDS011;10382;49.140;9.234;2023-09-08T01:29:40;10.27;;;6.10;;
20445;SDS011;10382;49.140;9.234;2023-09-08T01:32:07;9.47;;;6.93;;
20445;SDS011;10382;49.140;9.234;2023-09-08T01:34:35;9.33;;;6.40;;
20445;SDS011;10382;49.140;9.234;2023-09-08T01:37:04;17.83;;;7.20;;
20445;SDS011;10382;49.140;9.234;2023-09-08T01:39:32;8.77;;;7.10;;
20445;SDS011;10382;49.140;9.234;2023-09-08T01:41:59;17.17;;;7.10;;
20445;SDS011;10382;49.140;9.234;2023-09-08T01:44:27;11.30;;;7.37;;
20445;SDS011;10382;49.140;9.234;2023-09-08T01:46:54;9.17;;;7.00;;
20445;SDS011;10382;49.140;9.234;2023-09-08T01:49:23;18.50;;;8.17;;
20445;SDS011;10382;49.140;9.234;2023-09-08T01:51:50;8.93;;;6.30;;
20445;SDS011;10382;49.140;9.234;2023-09-08T01:54:17;12.00;;;5.93;;
20445;SDS011;10382;49.140;9.234;2023-09-08T01:56:44;11.40;;;7.40;;
20445;SDS011;10382;49.140;9.234;2023-09-08T01:59:11;10.50;;;5.80;;
20445;SDS011;10382;49.140;9.234;2023-09-08T02:01:39;7.70;;;6.33;;
20445;SDS011;10382;49.140;9.234;2023-09-08T02:04:06;11.03;;;6.97;;
20445;SDS011;10382;49.140;9.234;2023-09-08T02:06:32;10.43;;;6.67;;
20445;SDS011;10382;49.140;9.234;2023-09-08T02:08:59;13.40;;;8.33;;
20445;SDS011;10382;49.140;9.234;2023-09-08T02:11:26;10.20;;;7.60;;
20445;SDS011;10382;49.140;9.234;2023-09-08T02:13:53;15.43;;;7.70;;
20445;SDS011;10382;49.140;9.234;2023-09-08T02:16:20;11.50;;;8.20;;
20445;SDS011;10382;49.140;9.234;2023-09-08T02:18:50;11.70;;;7.43;;
20445;SDS011;10382;49.140;9.234;2023-09-08T02:21:16;16.93;;;7.33;;
20445;SDS011;10382;49.140;9.234;2023-09-08T02:23:43;12.83;;;6.97;;
20445;SDS011;10382;49.140;9.234;2023-09-08T02:26:10;15.83;;;6.50;;
20445;SDS011;10382;49.140;9.234;2023-09-08T02:28:37;12.70;;;6.70;;
20445;SDS011;10382;49.140;9.234;2023-09-08T02:31:04;8.83;;;6.10;;
20445;SDS011;10382;49.140;9.234;2023-09-08T02:33:31;8.77;;;6.77;;
20445;SDS011;10382;49.140;9.234;2023-09-08T02:36:02;9.50;;;6.70;;
20445;SDS011;10382;49.140;9.234;2023-09-08T02:38:30;17.97;;;7.77;;
20445;SDS011;10382;49.140;9.234;2023-09-08T02:40:56;11.13;;;6.13;;
20445;SDS011;10382;49.140;9.234;2023-09-08T02:43:23;13.50;;;7.03;;
20445;SDS011;10382;49.140;9.234;2023-09-08T02:45:50;8.30;;;6.00;;
20445;SDS011;10382;49.140;9.234;2023-09-08T02:48:17;8.37;;;6.83;;
20445;SDS011;10382;49.140;9.234;2023-09-08T02:50:44;7.60;;;6.80;;
20445;SDS011;10382;49.140;9.234;2023-09-08T02:53:12;8.03;;;6.30;;
20445;SDS011;10382;49.140;9.234;2023-09-08T02:55:39;16.90;;;7.10;;
20445;SDS011;10382;49.140;9.234;2023-09-08T02:58:06;14.40;;;8.53;;
20445;SDS011;10382;49.140;9.234;2023-09-08T03:00:32;11.50;;;7.70;;
20445;SDS011;10382;49.140;9.234;2023-09-08T03:02:59;12.47;;;7.90;;
20445;SDS011;10382;49.140;9.234;2023-09-08T03:05:26;14.30;;;8.37;;
20445;SDS011;10382;49.140;9.234;2023-09-08T03:07:53;11.53;;;7.80;;
20445;SDS011;10382;49.140;9.234;2023-09-08T03:10:21;18.53;;;8.83;;
20445;SDS011;10382;49.140;9.234;2023-09-08T03:12:48;10.07;;;7.40;;
20445;SDS011;10382;49.140;9.234;2023-09-08T03:15:15;11.80;;;8.57;;
20445;SDS011;10382;49.140;9.234;2023-09-08T03:17:42;9.40;;;6.93;;
20445;SDS011;10382;49.140;9.234;2023-09-08T03:20:09;9.70;;;7.00;;
20445;SDS011;10382;49.140;9.234;2023-09-08T03:22:38;19.97;;;8.90;;
20445;SDS011;10382;49.140;9.234;2023-09-08T03:25:05;11.57;;;8.03;;
20445;SDS011;10382;49.140;9.234;2023-09-08T03:27:34;9.40;;;7.20;;
20445;SDS011;10382;49.140;9.234;2023-09-08T03:30:01;9.93;;;7.40;;
20445;SDS011;10382;49.140;9.234;2023-09-08T03:32:29;10.53;;;7.67;;
20445;SDS011;10382;49.140;9.234;2023-09-08T03:34:56;13.37;;;8.47;;
20445;SDS011;10382;49.140;9.234;2023-09-08T03:37:23;14.97;;;7.77;;
20445;SDS011;10382;49.140;9.234;2023-09-08T03:39:51;16.20;;;9.33;;
20445;SDS011;10382;49.140;9.234;2023-09-08T03:42:18;17.63;;;8.00;;
20445;SDS011;10382;49.140;9.234;2023-09-08T03:44:46;11.87;;;8.20;;
20445;SDS011;10382;49.140;9.234;2023-09-08T03:47:13;9.10;;;6.30;;
20445;SDS011;10382;49.140;9.234;2023-09-08T03:49:40;9.47;;;6.27;;
20445;SDS011;10382;49.140;9.234;2023-09-08T03:52:06;8.13;;;6.17;;
20445;SDS011;10382;49.140;9.234;2023-09-08T03:54:33;11.77;;;6.10;;
20445;SDS011;10382;49.140;9.234;2023-09-08T03:57:00;12.87;;;6.83;;
20445;SDS011;10382;49.140;9.234;2023-09-08T03:59:27;12.23;;;6.50;;
20445;SDS011;10382;49.140;9.234;2023-09-08T04:01:55;11.17;;;6.70;;
20445;SDS011;10382;49.140;9.234;2023-09-08T04:04:22;10.03;;;6.87;;
20445;SDS011;10382;49.140;9.234;2023-09-08T04:06:49;9.63;;;8.33;;
20445;SDS011;10382;49.140;9.234;2023-09-08T04:09:16;6.90;;;5.40;;
20445;SDS011;10382;49.140;9.234;2023-09-08T04:11:42;11.97;;;8.60;;
20445;SDS011;10382;49.140;9.234;2023-09-08T04:14:09;12.13;;;7.00;;
20445;SDS011;10382;49.140;9.234;2023-09-08T04:16:36;12.20;;;8.30;;
20445;SDS011;10382;49.140;9.234;2023-09-08T04:19:04;11.77;;;7.80;;
20445;SDS011;10382;49.140;9.234;2023-09-08T04:21:31;10.50;;;7.43;;
20445;SDS011;10382;49.140;9.234;2023-09-08T04:23:58;10.77;;;7.50;;
20445;SDS011;10382;49.140;9.234;2023-09-08T04:26:25;10.07;;;7.13;;
20445;SDS011;10382;49.140;9.234;2023-09-08T04:28:52;11.57;;;8.13;;
20445;SDS011;10382;49.140;9.234;2023-09-08T04:31:19;14.50;;;7.53;;
20445;SDS011;10382;49.140;9.234;2023-09-08T04:33:47;21.10;;;7.27;;
20445;SDS011;10382;49.140;9.234;2023-09-08T04:36:15;12.70;;;7.30;;
20445;SDS011;10382;49.140;9.234;2023-09-08T04:38:42;11.07;;;6.27;;
20445;SDS011;10382;49.140;9.234;2023-09-08T04:41:09;9.43;;;7.60;;
20445;SDS011;10382;49.140;9.234;2023-09-08T04:43:36;14.73;;;8.00;;
20445;SDS011;10382;49.140;9.234;2023-09-08T04:46:03;12.30;;;7.60;;
20445;SDS011;10382;49.140;9.234;2023-09-08T04:48:30;12.90;;;7.40;;
20445;SDS011;10382;49.140;9.234;2023-09-08T04:50:57;9.97;;;6.70;;
20445;SDS011;10382;49.140;9.234;2023-09-08T04:53:25;13.53;;;7.93;;
20445;SDS011;10382;49.140;9.234;2023-09-08T04:55:52;8.00;;;6.80;;
20445;SDS011;10382;49.140;9.234;2023-09-08T04:58:19;11.97;;;8.37;;
20445;SDS011;10382;49.140;9.234;2023-09-08T05:00:46;16.17;;;8.80;;
20445;SDS011;10382;49.140;9.234;2023-09-08T05:03:12;12.13;;;7.30;;
20445;SDS011;10382;49.140;9.234;2023-09-08T05:05:39;11.07;;;8.30;;
20445;SDS011;10382;49.140;9.234;2023-09-08T05:08:06;9.27;;;7.33;;
20445;SDS011;10382;49.140;9.234;2023-09-08T05:10:34;14.60;;;6.90;;
20445;SDS011;10382;49.140;9.234;2023-09-08T05:13:01;11.03;;;7.80;;
20445;SDS011;10382;49.140;9.234;2023-09-08T05:15:28;10.30;;;6.83;;
20445;SDS011;10382;49.140;9.234;2023-09-08T05:17:56;8.50;;;7.30;;
20445;SDS011;10382;49.140;9.234;2023-09-08T05:20:23;22.33;;;7.23;;
20445;SDS011;10382;49.140;9.234;2023-09-08T05:22:49;10.20;;;8.77;;
20445;SDS011;10382;49.140;9.234;2023-09-08T05:25:16;10.93;;;8.00;;
20445;SDS011;10382;49.140;9.234;2023-09-08T05:27:45;14.70;;;7.13;;
20445;SDS011;10382;49.140;9.234;2023-09-08T05:30:12;12.93;;;7.50;;
20445;SDS011;10382;49.140;9.234;2023-09-08T05:32:39;13.00;;;6.70;;
20445;SDS011;10382;49.140;9.234;2023-09-08T05:35:06;8.10;;;6.37;;
20445;SDS011;10382;49.140;9.234;2023-09-08T05:37:33;8.70;;;7.33;;
20445;SDS011;10382;49.140;9.234;2023-09-08T05:39:59;15.30;;;8.30;;
20445;SDS011;10382;49.140;9.234;2023-09-08T05:42:26;10.20;;;7.27;;
20445;SDS011;10382;49.140;9.234;2023-09-08T05:44:54;12.33;;;7.93;;
20445;SDS011;10382;49.140;9.234;2023-09-08T05:47:21;10.20;;;7.10;;
20445;SDS011;10382;49.140;9.234;2023-09-08T05:49:48;11.77;;;7.43;;
20445;SDS011;10382;49.140;9.234;2023-09-08T05:52:15;17.60;;;8.43;;
20445;SDS011;10382;49.140;9.234;2023-09-08T05:54:42;16.90;;;10.63;;
20445;SDS011;10382;49.140;9.234;2023-09-08T05:57:09;11.93;;;9.60;;
20445;SDS011;10382;49.140;9.234;2023-09-08T05:59:36;12.23;;;7.83;;
20445;SDS011;10382;49.140;9.234;2023-09-08T06:02:04;12.93;;;7.33;;
20445;SDS011;10382;49.140;9.234;2023-09-08T06:04:31;11.10;;;9.07;;
20445;SDS011;10382;49.140;9.234;2023-09-08T06:06:58;15.30;;;9.80;;
20445;SDS011;10382;49.140;9.234;2023-09-08T06:09:25;12.10;;;8.33;;
20445;SDS011;10382;49.140;9.234;2023-09-08T06:11:52;7.10;;;6.50;;
20445;SDS011;10382;49.140;9.234;2023-09-08T06:14:18;8.63;;;7.73;;
20445;SDS011;10382;49.140;9.234;2023-09-08T06:16:45;10.77;;;6.77;;
20445;SDS011;10382;49.140;9.234;2023-09-08T06:19:13;11.23;;;7.30;;
20445;SDS011;10382;49.140;9.234;2023-09-08T06:21:40;9.37;;;7.10;;
20445;SDS011;10382;49.140;9.234;2023-09-08T06:24:07;10.60;;;7.30;;
20445;SDS011;10382;49.140;9.234;2023-09-08T06:26:34;12.53;;;8.27;;
20445;SDS011;10382;49.140;9.234;2023-09-08T06:29:01;11.80;;;7.87;;
20445;SDS011;10382;49.140;9.234;2023-09-08T06:31:28;9.67;;;8.27;;
20445;SDS011;10382;49.140;9.234;2023-09-08T06:33:55;14.77;;;7.53;;
20445;SDS011;10382;49.140;9.234;2023-09-08T06:36:23;8.50;;;7.10;;
20445;SDS011;10382;49.140;9.234;2023-09-08T06:38:50;8.03;;;6.80;;
20445;SDS011;10382;49.140;9.234;2023-09-08T06:41:17;9.97;;;6.60;;
20445;SDS011;10382;49.140;9.234;2023-09-08T06:43:44;7.27;;;6.57;;
20445;SDS011;10382;49.140;9.234;2023-09-08T06:46:11;7.80;;;7.07;;
20445;SDS011;10382;49.140;9.234;2023-09-08T06:48:38;11.73;;;8.17;;
20445;SDS011;10382;49.140;9.234;2023-09-08T06:51:04;8.50;;;6.20;;
20445;SDS011;10382;49.140;9.234;2023-09-08T06:53:33;9.53;;;7.13;;
20445;SDS011;10382;49.140;9.234;2023-09-08T06:55:59;9.13;;;6.87;;
20445;SDS011;10382;49.140;9.234;2023-09-08T06:58:26;7.83;;;6.60;;
20445;SDS011;10382;49.140;9.234;2023-09-08T07:00:53;13.10;;;8.20;;
20445;SDS011;10382;49.140;9.234;2023-09-08T07:03:20;11.33;;;6.70;;
20445;SDS011;10382;49.140;9.234;2023-09-08T07:05:47;9.10;;;6.50;;
20445;SDS011;10382;49.140;9.234;2023-09-08T07:08:15;9.97;;;6.17;;
20445;SDS011;10382;49.140;9.234;2023-09-08T07:10:44;7.73;;;6.93;;
20445;SDS011;10382;49.140;9.234;2023-09-08T07:13:11;8.63;;;6.73;;
20445;SDS011;10382;49.140;9.234;2023-09-08T07:15:38;8.57;;;6.00;;
20445;SDS011;10382;49.140;9.234;2023-09-08T07:18:05;8.87;;;5.97;;
20445;SDS011;10382;49.140;9.234;2023-09-08T07:20:32;6.13;;;5.57;;
20445;SDS011;10382;49.140;9.234;2023-09-08T07:22:59;9.13;;;6.80;;
20445;SDS011;10382;49.140;9.234;2023-09-08T07:25:26;20.07;;;6.80;;
20445;SDS011;10382;49.140;9.234;2023-09-08T07:27:54;7.30;;;6.20;;
20445;SDS011;10382;49.140;9.234;2023-09-08T07:30:21;6.00;;;5.50;;
20445;SDS011;10382;49.140;9.234;2023-09-08T07:32:48;5.87;;;4.90;;
20445;SDS011;10382;49.140;9.234;2023-09-08T07:35:15;7.70;;;5.83;;
20445;SDS011;10382;49.140;9.234;2023-09-08T07:37:44;6.50;;;5.43;;
20445;SDS011;10382;49.140;9.234;2023-09-08T07:40:11;5.00;;;4.60;;
20445;SDS011;10382;49.140;9.234;2023-09-08T07:42:38;6.83;;;4.73;;
20445;SDS011;10382;49.140;9.234;2023-09-08T07:45:07;11.43;;;5.00;;
20445;SDS011;10382;49.140;9.234;2023-09-08T07:47:35;9.40;;;4.60;;
20445;SDS011;10382;49.140;9.234;2023-09-08T07:50:16;7.90;;;5.90;;
20445;SDS011;10382;49.140;9.234;2023-09-08T07:52:44;5.67;;;5.13;;
20445;SDS011;10382;49.140;9.234;2023-09-08T07:55:11;7.73;;;5.60;;
20445;SDS011;10382;49.140;9.234;2023-09-08T07:57:38;7.97;;;4.70;;
20445;SDS011;10382;49.140;9.234;2023-09-08T08:00:07;6.30;;;4.10;;
20445;SDS011;10382;49.140;9.234;2023-09-08T08:02:36;4.63;;;4.33;;
20445;SDS011;10382;49.140;9.234;2023-09-08T08:05:03;11.63;;;5.20;;
20445;SDS011;10382;49.140;9.234;2023-09-08T08:07:31;9.37;;;4.70;;
20445;SDS011;10382;49.140;9.234;2023-09-08T08:09:58;32.70;;;6.40;;
20445;SDS011;10382;49.140;9.234;2023-09-08T08:12:25;9.47;;;5.30;;
20445;SDS011;10382;49.140;9.234;2023-09-08T08:14:52;5.97;;;5.40;;
20445;SDS011;10382;49.140;9.234;2023-09-08T08:17:20;11.17;;;4.87;;
20445;SDS011;10382;49.140;9.234;2023-09-08T08:19:47;9.03;;;5.70;;
20445;SDS011;10382;49.140;9.234;2023-09-08T08:22:14;7.83;;;5.37;;
20445;SDS011;10382;49.140;9.234;2023-09-08T08:24:41;16.50;;;6.10;;
20445;SDS011;10382;49.140;9.234;2023-09-08T08:27:08;7.70;;;5.60;;
20445;SDS011;10382;49.140;9.234;2023-09-08T08:29:34;8.70;;;4.77;;
20445;SDS011;10382;49.140;9.234;2023-09-08T08:32:01;12.37;;;4.83;;
20445;SDS011;10382;49.140;9.234;2023-09-08T08:34:30;4.80;;;4.40;;
20445;SDS011;10382;49.140;9.234;2023-09-08T08:36:57;8.40;;;5.97;;
20445;SDS011;10382;49.140;9.234;2023-09-08T08:39:23;8.57;;;5.47;;
20445;SDS011;10382;49.140;9.234;2023-09-08T08:41:50;10.10;;;5.10;;
20445;SDS011;10382;49.140;9.234;2023-09-08T08:44:17;6.63;;;4.97;;
20445;SDS011;10382;49.140;9.234;2023-09-08T08:46:46;6.23;;;4.67;;
20445;SDS011;10382;49.140;9.234;2023-09-08T08:49:14;5.27;;;4.77;;
20445;SDS011;10382;49.140;9.234;2023-09-08T08:51:43;4.97;;;4.47;;
20445;SDS011;10382;49.140;9.234;2023-09-08T08:54:11;5.20;;;4.67;;
20445;SDS011;10382;49.140;9.234;2023-09-08T08:56:39;5.97;;;5.33;;
20445;SDS011;10382;49.140;9.234;2023-09-08T08:59:07;5.37;;;4.87;;
20445;SDS011;10382;49.140;9.234;2023-09-08T09:01:36;7.27;;;5.00;;
20445;SDS011;10382;49.140;9.234;2023-09-08T09:04:05;5.50;;;5.00;;
20445;SDS011;10382;49.140;9.234;2023-09-08T09:06:32;8.20;;;4.90;;
20445;SDS011;10382;49.140;9.234;2023-09-08T09:09:00;12.10;;;5.20;;
20445;SDS011;10382;49.140;9.234;2023-09-08T09:11:29;9.70;;;6.77;;
20445;SDS011;10382;49.140;9.234;2023-09-08T09:13:56;5.80;;;5.20;;
20445;SDS011;10382;49.140;9.234;2023-09-08T09:16:23;6.90;;;5.03;;
20445;SDS011;10382;49.140;9.234;2023-09-08T09:18:54;13.00;;;5.10;;
20445;SDS011;10382;49.140;9.234;2023-09-08T09:21:21;9.63;;;4.83;;
20445;SDS011;10382;49.140;9.234;2023-09-08T09:23:49;4.43;;;4.00;;
20445;SDS011;10382;49.140;9.234;2023-09-08T09:26:24;5.10;;;4.47;;
20445;SDS011;10382;49.140;9.234;2023-09-08T09:28:51;5.10;;;4.13;;
20445;SDS011;10382;49.140;9.234;2023-09-08T09:31:22;7.50;;;5.63;;
20445;SDS011;10382;49.140;9.234;2023-09-08T09:34:00;7.10;;;5.40;;
20445;SDS011;10382;49.140;9.234;2023-09-08T09:36:30;9.53;;;4.43;;
20445;SDS011;10382;49.140;9.234;2023-09-08T09:38:58;5.50;;;4.73;;
20445;SDS011;10382;49.140;9.234;2023-09-08T09:41:28;6.00;;;4.60;;
20445;SDS011;10382;49.140;9.234;2023-09-08T09:43:55;4.70;;;4.30;;
20445;SDS011;10382;49.140;9.234;2023-09-08T09:46:23;9.03;;;5.73;;
20445;SDS011;10382;49.140;9.234;2023-09-08T09:48:50;6.20;;;4.43;;
20445;SDS011;10382;49.140;9.234;2023-09-08T09:51:19;5.53;;;4.50;;
20445;SDS011;10382;49.140;9.234;2023-09-08T09:53:46;5.30;;;4.80;;
20445;SDS011;10382;49.140;9.234;2023-09-08T09:56:15;5.77;;;4.77;;
20445;SDS011;10382;49.140;9.234;2023-09-08T09:58:44;7.10;;;4.80;;
20445;SDS011;10382;49.140;9.234;2023-09-08T10:01:13;5.70;;;4.97;;
20445;SDS011;10382;49.140;9.234;2023-09-08T10:03:40;6.17;;;5.57;;
20445;SDS011;10382;49.140;9.234;2023-09-08T10:06:07;10.40;;;4.80;;
20445;SDS011;10382;49.140;9.234;2023-09-08T10:08:35;6.10;;;5.23;;
20445;SDS011;10382;49.140;9.234;2023-09-08T10:11:04;6.10;;;5.43;;
20445;SDS011;10382;49.140;9.234;2023-09-08T10:13:34;8.30;;;4.80;;
20445;SDS011;10382;49.140;9.234;2023-09-08T10:16:07;7.13;;;5.13;;
20445;SDS011;10382;49.140;9.234;2023-09-08T10:18:35;7.47;;;4.80;;
20445;SDS011;10382;49.140;9.234;2023-09-08T10:21:03;5.00;;;3.80;;
20445;SDS011;10382;49.140;9.234;2023-09-08T10:23:33;4.20;;;3.90;;
20445;SDS011;10382;49.140;9.234;2023-09-08T10:26:05;8.73;;;5.43;;
20445;SDS011;10382;49.140;9.234;2023-09-08T10:28:35;5.43;;;4.77;;
20445;SDS011;10382;49.140;9.234;2023-09-08T10:31:02;6.10;;;5.43;;
20445;SDS011;10382;49.140;9.234;2023-09-08T10:33:31;6.00;;;4.40;;
20445;SDS011;10382;49.140;9.234;2023-09-08T10:36:00;11.67;;;6.67;;
20445;SDS011;10382;49.140;9.234;2023-09-08T10:38:31;8.63;;;4.93;;
20445;SDS011;10382;49.140;9.234;2023-09-08T10:43:57;8.23;;;5.50;;
20445;SDS011;10382;49.140;9.234;2023-09-08T10:46:28;10.27;;;5.87;;
20445;SDS011;10382;49.140;9.234;2023-09-08T10:49:01;7.30;;;4.60;;
20445;SDS011;10382;49.140;9.234;2023-09-08T10:51:29;7.50;;;4.63;;
20445;SDS011;10382;49.140;9.234;2023-09-08T10:53:56;19.40;;;7.30;;
20445;SDS011;10382;49.140;9.234;2023-09-08T10:56:26;6.07;;;4.07;;
20445;SDS011;10382;49.140;9.234;2023-09-08T10:58:54;10.90;;;5.50;;
20445;SDS011;10382;49.140;9.234;2023-09-08T11:01:21;6.22;;;4.10;;
20445;SDS011;10382;49.140;9.234;2023-09-08T11:03:51;9.47;;;4.90;;
20445;SDS011;10382;49.140;9.234;2023-09-08T11:06:21;5.57;;;3.93;;
20445;SDS011;10382;49.140;9.234;2023-09-08T11:08:48;9.07;;;5.17;;
20445;SDS011;10382;49.140;9.234;2023-09-08T11:11:18;8.07;;;4.23;;
20445;SDS011;10382;49.140;9.234;2023-09-08T11:13:45;7.40;;;4.40;;
20445;SDS011;10382;49.140;9.234;2023-09-08T11:16:13;14.73;;;4.40;;
20445;SDS011;10382;49.140;9.234;2023-09-08T11:18:40;10.40;;;4.60;;
20445;SDS011;10382;49.140;9.234;2023-09-08T11:21:08;6.50;;;4.60;;
20445;SDS011;10382;49.140;9.234;2023-09-08T11:23:37;9.82;;;5.55;;
20445;SDS011;10382;49.140;9.234;2023-09-08T11:26:06;9.02;;;5.47;;
20445;SDS011;10382;49.140;9.234;2023-09-08T11:28:34;6.90;;;5.00;;
20445;SDS011;10382;49.140;9.234;2023-09-08T11:31:01;14.80;;;6.60;;
20445;SDS011;10382;49.140;9.234;2023-09-08T11:33:32;4.22;;;3.83;;
20445;SDS011;10382;49.140;9.234;2023-09-08T11:36:00;10.17;;;6.50;;
20445;SDS011;10382;49.140;9.234;2023-09-08T11:38:27;5.90;;;4.82;;
20445;SDS011;10382;49.140;9.234;2023-09-08T11:40:56;7.72;;;4.65;;
20445;SDS011;10382;49.140;9.234;2023-09-08T11:43:24;7.20;;;4.90;;
20445;SDS011;10382;49.140;9.234;2023-09-08T11:45:52;7.13;;;5.07;;
20445;SDS011;10382;49.140;9.234;2023-09-08T11:48:19;5.93;;;4.43;;
20445;SDS011;10382;49.140;9.234;2023-09-08T11:50:46;7.45;;;4.47;;
20445;SDS011;10382;49.140;9.234;2023-09-08T11:53:13;6.13;;;4.57;;
20445;SDS011;10382;49.140;9.234;2023-09-08T11:55:46;5.70;;;4.40;;
20445;SDS011;10382;49.140;9.234;2023-09-08T11:58:14;7.35;;;5.00;;
20445;SDS011;10382;49.140;9.234;2023-09-08T12:00:41;7.53;;;4.80;;
20445;SDS011;10382;49.140;9.234;2023-09-08T12:03:09;6.07;;;4.30;;
20445;SDS011;10382;49.140;9.234;2023-09-08T12:05:37;6.80;;;5.00;;
20445;SDS011;10382;49.140;9.234;2023-09-08T12:08:05;13.97;;;6.03;;
20445;SDS011;10382;49.140;9.234;2023-09-08T12:10:37;25.70;;;5.83;;
20445;SDS011;10382;49.140;9.234;2023-09-08T12:13:04;8.70;;;5.17;;
20445;SDS011;10382;49.140;9.234;2023-09-08T12:15:34;6.73;;;4.77;;
20445;SDS011;10382;49.140;9.234;2023-09-08T12:18:03;9.50;;;5.53;;
20445;SDS011;10382;49.140;9.234;2023-09-08T12:20:31;9.80;;;4.53;;
20445;SDS011;10382;49.140;9.234;2023-09-08T12:22:59;6.10;;;4.50;;
20445;SDS011;10382;49.140;9.234;2023-09-08T12:25:27;9.90;;;5.97;;
20445;SDS011;10382;49.140;9.234;2023-09-08T12:27:56;18.47;;;6.10;;
20445;SDS011;10382;49.140;9.234;2023-09-08T12:30:24;8.70;;;5.33;;
20445;SDS011;10382;49.140;9.234;2023-09-08T12:32:56;10.63;;;6.20;;
20445;SDS011;10382;49.140;9.234;2023-09-08T12:35:25;9.93;;;5.83;;
20445;SDS011;10382;49.140;9.234;2023-09-08T12:37:53;7.33;;;5.50;;
20445;SDS011;10382;49.140;9.234;2023-09-08T12:40:22;7.90;;;5.10;;
20445;SDS011;10382;49.140;9.234;2023-09-08T12:42:49;8.40;;;5.67;;
20445;SDS011;10382;49.140;9.234;2023-09-08T12:45:17;6.77;;;5.07;;
20445;SDS011;10382;49.140;9.234;2023-09-08T12:47:44;7.03;;;5.17;;
20445;SDS011;10382;49.140;9.234;2023-09-08T12:50:12;9.97;;;5.13;;
20445;SDS011;10382;49.140;9.234;2023-09-08T12:52:39;7.00;;;4.90;;
20445;SDS011;10382;49.140;9.234;2023-09-08T12:55:06;7.57;;;4.50;;
20445;SDS011;10382;49.140;9.234;2023-09-08T12:57:33;9.00;;;5.50;;
20445;SDS011;10382;49.140;9.234;2023-09-08T13:00:00;11.70;;;5.67;;
20445;SDS011;10382;49.140;9.234;2023-09-08T13:02:28;10.57;;;5.07;;
20445;SDS011;10382;49.140;9.234;2023-09-08T13:04:55;12.87;;;5.00;;
20445;SDS011;10382;49.140;9.234;2023-09-08T13:07:24;8.37;;;4.90;;
20445;SDS011;10382;49.140;9.234;2023-09-08T13:09:51;7.13;;;5.47;;
20445;SDS011;10382;49.140;9.234;2023-09-08T13:12:18;33.57;;;7.37;;
20445;SDS011;10382;49.140;9.234;2023-09-08T13:14:45;7.70;;;5.40;;
20445;SDS011;10382;49.140;9.234;2023-09-08T13:17:12;6.70;;;5.20;;
20445;SDS011;10382;49.140;9.234;2023-09-08T13:19:41;10.33;;;5.40;;
20445;SDS011;10382;49.140;9.234;2023-09-08T13:22:08;12.17;;;6.97;;
20445;SDS011;10382;49.140;9.234;2023-09-08T13:24:36;6.87;;;4.63;;
20445;SDS011;10382;49.140;9.234;2023-09-08T13:27:04;12.67;;;6.53;;
20445;SDS011;10382;49.140;9.234;2023-09-08T13:29:31;8.53;;;5.60;;
20445;SDS011;10382;49.140;9.234;2023-09-08T13:31:58;5.30;;;4.80;;
20445;SDS011;10382;49.140;9.234;2023-09-08T13:34:25;8.70;;;5.30;;
20445;SDS011;10382;49.140;9.234;2023-09-08T13:36:52;8.43;;;4.97;;
20445;SDS011;10382;49.140;9.234;2023-09-08T13:39:19;6.20;;;4.77;;
20445;SDS011;10382;49.140;9.234;2023-09-08T13:41:47;8.50;;;5.10;;
20445;SDS011;10382;49.140;9.234;2023-09-08T13:44:16;7.80;;;5.50;;
20445;SDS011;10382;49.140;9.234;2023-09-08T13:46:44;9.13;;;4.87;;
20445;SDS011;10382;49.140;9.234;2023-09-08T13:49:11;10.37;;;6.43;;
20445;SDS011;10382;49.140;9.234;2023-09-08T13:51:38;6.47;;;5.37;;
20445;SDS011;10382;49.140;9.234;2023-09-08T13:54:05;11.70;;;6.97;;
20445;SDS011;10382;49.140;9.234;2023-09-08T13:56:33;8.97;;;5.93;;
20445;SDS011;10382;49.140;9.234;2023-09-08T13:59:02;9.40;;;5.43;;
20445;SDS011;10382;49.140;9.234;2023-09-08T14:01:29;9.10;;;5.73;;
20445;SDS011;10382;49.140;9.234;2023-09-08T14:03:56;6.50;;;5.37;;
20445;SDS011;10382;49.140;9.234;2023-09-08T14:06:25;15.60;;;6.07;;
20445;SDS011;10382;49.140;9.234;2023-09-08T14:08:52;6.73;;;4.97;;
20445;SDS011;10382;49.140;9.234;2023-09-08T14:11:21;7.33;;;5.70;;
20445;SDS011;10382;49.140;9.234;2023-09-08T14:13:48;5.43;;;4.80;;
20445;SDS011;10382;49.140;9.234;2023-09-08T14:16:17;7.77;;;5.00;;
20445;SDS011;10382;49.140;9.234;2023-09-08T14:18:44;11.97;;;6.73;;
20445;SDS011;10382;49.140;9.234;2023-09-08T14:21:11;8.63;;;5.50;;
20445;SDS011;10382;49.140;9.234;2023-09-08T14:23:38;6.70;;;5.60;;
20445;SDS011;10382;49.140;9.234;2023-09-08T14:26:06;6.83;;;4.80;;
20445;SDS011;10382;49.140;9.234;2023-09-08T14:28:32;11.20;;;6.90;;
20445;SDS011;10382;49.140;9.234;2023-09-08T14:30:59;5.80;;;4.80;;
20445;SDS011;10382;49.140;9.234;2023-09-08T14:33:27;11.23;;;5.30;;
20445;SDS011;10382;49.140;9.234;2023-09-08T14:35:54;8.70;;;4.80;;
20445;SDS011;10382;49.140;9.234;2023-09-08T14:38:21;5.83;;;4.47;;
20445;SDS011;10382;49.140;9.234;2023-09-08T14:40:55;6.80;;;4.33;;
20445;SDS011;10382;49.140;9.234;2023-09-08T14:43:23;8.07;;;5.50;;
20445;SDS011;10382;49.140;9.234;2023-09-08T14:45:50;7.27;;;4.90;;
20445;SDS011;10382;49.140;9.234;2023-09-08T14:48:18;7.67;;;4.30;;